createdAt,value
2023-05-14T00:01:39.310Z,6.99
2023-05-14T00:04:42.545Z,6.89
2023-05-14T00:07:47.563Z,6.87
2023-05-14T00:10:51.008Z,6.85
2023-05-14T00:13:54.516Z,6.84
2023-05-14T00:16:58.229Z,6.86
2023-05-14T00:20:01.322Z,6.82
2023-05-14T00:23:06.609Z,7.19
2023-05-14T00:26:09.726Z,6.85
2023-05-14T00:29:13.581Z,6.65
2023-05-14T00:32:16.925Z,7.16
2023-05-14T00:35:21.337Z,6.66
2023-05-14T00:38:27.732Z,6.54
2023-05-14T00:41:30.840Z,6.50
2023-05-14T00:44:34.040Z,6.41
2023-05-14T00:47:39.227Z,6.41
2023-05-14T00:50:43.907Z,6.49
2023-05-14T00:53:48.782Z,6.42
2023-05-14T00:56:52.489Z,6.68
2023-05-14T00:59:56.365Z,6.37
2023-05-14T01:03:01.482Z,6.29
2023-05-14T01:06:13.292Z,6.48
2023-05-14T01:09:23.246Z,6.50
2023-05-14T01:12:34.519Z,6.42
2023-05-14T01:15:41.322Z,6.48
2023-05-14T01:18:47.171Z,6.51
2023-05-14T01:21:51.792Z,6.70
2023-05-14T01:24:54.965Z,6.77
2023-05-14T01:28:04.912Z,6.96
2023-05-14T01:31:17.389Z,6.87
2023-05-14T01:34:23.294Z,7.14
2023-05-14T01:37:30.056Z,7.06
2023-05-14T01:40:34.691Z,6.88
2023-05-14T01:43:39.357Z,7.10
2023-05-14T01:46:42.583Z,7.14
2023-05-14T01:49:45.814Z,6.99
2023-05-14T01:52:53.185Z,7.21
2023-05-14T01:55:57.381Z,7.29
2023-05-14T01:59:00.476Z,7.25
2023-05-14T02:02:03.659Z,7.35
2023-05-14T02:05:07.676Z,7.32
2023-05-14T02:08:12.177Z,7.40
2023-05-14T02:11:15.441Z,7.60
2023-05-14T02:14:18.654Z,7.56
2023-05-14T02:17:22.065Z,8.16
2023-05-14T02:20:25.457Z,7.66
2023-05-14T02:23:40.549Z,7.60
2023-05-14T02:26:44.631Z,7.76
2023-05-14T02:29:47.864Z,7.70
2023-05-14T02:32:51.578Z,7.75
2023-05-14T02:35:54.987Z,7.62
2023-05-14T02:39:00.875Z,7.56
2023-05-14T02:42:04.059Z,7.61
2023-05-14T02:45:08.139Z,7.61
2023-05-14T02:48:11.328Z,7.57
2023-05-14T02:51:14.407Z,7.61
2023-05-14T02:54:18.888Z,7.48
2023-05-14T02:57:22.395Z,7.55
2023-05-14T03:00:25.836Z,7.56
2023-05-14T03:03:30.464Z,7.28
2023-05-14T03:06:33.920Z,7.46
2023-05-14T03:09:38.595Z,7.36
2023-05-14T03:12:41.882Z,7.44
2023-05-14T03:15:45.254Z,7.49
2023-05-14T03:18:48.754Z,7.48
2023-05-14T03:21:52.034Z,7.47
2023-05-14T03:24:56.578Z,7.45
2023-05-14T03:27:59.698Z,7.48
2023-05-14T03:34:39.965Z,7.48
2023-05-14T03:37:43.615Z,7.47
2023-05-14T03:40:47.155Z,7.51
2023-05-14T03:43:50.325Z,7.50
2023-05-14T03:46:53.404Z,7.48
2023-05-14T03:49:58.242Z,7.60
2023-05-14T03:53:01.435Z,7.60
2023-05-14T03:56:06.462Z,7.59
2023-05-14T03:59:10.238Z,7.64
2023-05-14T04:02:13.592Z,7.64
2023-05-14T04:05:18.078Z,7.72
2023-05-14T04:08:21.993Z,7.74
2023-05-14T04:11:26.150Z,7.80
2023-05-14T04:14:29.315Z,7.84
2023-05-14T04:17:34.511Z,7.89
2023-05-14T04:20:40.464Z,7.92
2023-05-14T04:23:43.567Z,8.00
2023-05-14T04:26:46.722Z,8.07
2023-05-14T04:29:49.898Z,8.17
2023-05-14T04:32:53.240Z,8.13
2023-05-14T04:35:57.768Z,8.35
2023-05-14T04:39:00.897Z,8.27
2023-05-14T04:42:04.114Z,8.27
2023-05-14T04:45:08.753Z,8.22
2023-05-14T04:48:12.195Z,8.31
2023-05-14T04:51:16.802Z,8.41
2023-05-14T04:54:19.947Z,8.30
2023-05-14T04:57:23.249Z,8.30
2023-05-14T05:00:27.118Z,8.39
2023-05-14T05:03:31.139Z,8.72
2023-05-14T05:06:35.603Z,8.60
2023-05-14T05:09:38.748Z,8.61
2023-05-14T05:12:42.240Z,9.10
2023-05-14T05:15:45.832Z,8.99
2023-05-14T05:18:49.122Z,8.98
2023-05-14T05:21:53.754Z,9.14
2023-05-14T05:24:56.908Z,9.20
2023-05-14T05:28:00.023Z,9.41
2023-05-14T05:31:03.215Z,9.56
2023-05-14T05:34:06.501Z,9.86
2023-05-14T05:37:12.747Z,9.77
2023-05-14T05:40:15.952Z,9.76
2023-05-14T05:43:19.380Z,9.86
2023-05-14T05:46:22.595Z,9.87
2023-05-14T05:49:26.037Z,10.36
2023-05-14T05:52:30.689Z,10.29
2023-05-14T05:55:33.848Z,10.49
2023-05-14T05:58:37.095Z,10.87
2023-05-14T06:01:40.729Z,11.47
2023-05-14T06:04:43.869Z,11.16
2023-05-14T06:07:48.648Z,11.25
2023-05-14T06:10:51.925Z,11.78
2023-05-14T06:13:55.222Z,11.36
2023-05-14T06:16:58.690Z,11.32
2023-05-14T06:20:02.022Z,11.95
2023-05-14T06:23:07.741Z,12.21
2023-05-14T06:26:10.895Z,12.19
2023-05-14T06:29:14.099Z,12.29
2023-05-14T06:32:17.583Z,12.27
2023-05-14T06:35:20.867Z,11.96
2023-05-14T06:38:25.703Z,11.29
2023-05-14T06:41:29.580Z,11.41
2023-05-14T06:44:33.064Z,11.53
2023-05-14T06:47:36.316Z,11.66
2023-05-14T06:50:39.465Z,11.60
2023-05-14T06:53:43.979Z,11.51
2023-05-14T06:56:47.186Z,11.67
2023-05-14T06:59:50.392Z,12.11
2023-05-14T07:02:53.719Z,11.79
2023-05-14T07:05:56.956Z,12.03
2023-05-14T07:09:02.974Z,12.13
2023-05-14T07:12:07.196Z,12.10
2023-05-14T07:15:11.893Z,12.18
2023-05-14T07:18:15.116Z,12.04
2023-05-14T07:21:18.377Z,12.23
2023-05-14T07:24:23.518Z,12.49
2023-05-14T07:27:26.672Z,12.57
2023-05-14T07:30:29.769Z,12.89
2023-05-14T07:33:33.044Z,12.60
2023-05-14T07:36:36.208Z,12.66
2023-05-14T07:39:41.671Z,12.73
2023-05-14T07:42:44.786Z,12.84
2023-05-14T07:45:48.012Z,12.66
2023-05-14T07:48:51.257Z,12.65
2023-05-14T07:51:54.460Z,13.73
2023-05-14T07:54:59.939Z,13.37
2023-05-14T07:58:03.284Z,13.06
2023-05-14T08:01:09.074Z,13.46
2023-05-14T08:04:12.620Z,12.95
2023-05-14T08:07:15.832Z,12.88
2023-05-14T08:10:20.491Z,13.32
2023-05-14T08:13:23.980Z,13.17
2023-05-14T08:16:27.328Z,12.78
2023-05-14T08:19:30.541Z,13.02
2023-05-14T08:22:33.794Z,13.25
2023-05-14T08:25:38.341Z,12.92
2023-05-14T08:28:41.498Z,12.78
2023-05-14T08:31:44.781Z,12.98
2023-05-14T08:34:47.932Z,12.88
2023-05-14T08:37:52.163Z,12.94
2023-05-14T08:40:58.917Z,12.92
2023-05-14T08:44:09.201Z,12.74
2023-05-14T08:47:13.436Z,12.78
2023-05-14T08:50:17.053Z,12.95
2023-05-14T08:53:20.205Z,12.72
2023-05-14T08:56:26.561Z,12.53
2023-05-14T08:59:29.716Z,12.93
2023-05-14T09:02:33.435Z,13.06
2023-05-14T09:05:36.972Z,13.14
2023-05-14T09:08:40.174Z,13.05
2023-05-14T09:11:47.830Z,13.15
2023-05-14T09:14:51.644Z,13.05
2023-05-14T09:17:55.042Z,13.61
2023-05-14T09:20:58.813Z,13.55
2023-05-14T09:24:02.369Z,13.51
2023-05-14T09:27:08.039Z,13.26
2023-05-14T09:30:12.808Z,13.25
2023-05-14T09:34:39.539Z,13.36
2023-05-14T09:37:43.768Z,13.37
2023-05-14T09:40:47.510Z,13.32
2023-05-14T09:43:52.344Z,13.53
2023-05-14T09:46:55.966Z,14.00
2023-05-14T09:50:00.671Z,14.00
2023-05-14T09:53:04.116Z,13.60
2023-05-14T09:56:07.331Z,13.70
2023-05-14T09:59:10.952Z,13.72
2023-05-14T10:02:22.748Z,14.10
2023-05-14T10:05:28.790Z,14.19
2023-05-14T10:08:35.654Z,14.41
2023-05-14T10:11:43.311Z,14.57
2023-05-14T10:14:53.182Z,14.58
2023-05-14T10:17:59.771Z,14.40
2023-05-14T10:21:06.530Z,14.92
2023-05-14T10:24:11.001Z,14.07
2023-05-14T10:27:15.270Z,14.84
2023-05-14T10:30:22.914Z,15.30
2023-05-14T10:33:26.276Z,14.81
2023-05-14T10:36:31.275Z,15.24
2023-05-14T10:39:48.365Z,15.24
2023-05-14T10:42:51.810Z,16.01
2023-05-14T10:45:55.207Z,15.56
2023-05-14T10:48:58.456Z,16.20
2023-05-14T10:52:09.300Z,15.17
2023-05-14T10:55:15.391Z,15.12
2023-05-14T10:58:19.086Z,15.20
2023-05-14T11:01:25.214Z,14.97
2023-05-14T11:04:29.218Z,14.88
2023-05-14T11:07:35.439Z,15.28
2023-05-14T11:10:40.338Z,15.05
2023-05-14T11:13:43.863Z,15.09
2023-05-14T11:16:48.143Z,15.17
2023-05-14T11:19:51.398Z,15.78
2023-05-14T11:22:55.888Z,16.23
2023-05-14T11:25:59.050Z,15.77
2023-05-14T11:29:02.380Z,15.66
2023-05-14T11:32:07.545Z,15.73
2023-05-14T11:35:11.101Z,15.73
2023-05-14T11:38:20.220Z,15.61
2023-05-14T11:41:23.792Z,15.32
2023-05-14T11:44:27.173Z,15.25
2023-05-14T11:47:31.500Z,15.83
2023-05-14T11:50:37.497Z,15.92
2023-05-14T11:53:42.112Z,15.91
2023-05-14T11:56:51.952Z,15.94
2023-05-14T11:59:57.895Z,15.54
2023-05-14T12:03:01.523Z,15.31
2023-05-14T12:06:08.298Z,15.36
2023-05-14T12:09:17.496Z,15.34
2023-05-14T12:12:21.990Z,15.53
2023-05-14T12:15:26.709Z,15.59
2023-05-14T12:18:31.841Z,15.31
2023-05-14T12:21:36.515Z,15.47
2023-05-14T12:24:41.206Z,15.40
2023-05-14T12:27:46.078Z,15.49
2023-05-14T12:30:56.891Z,15.60
2023-05-14T12:34:00.869Z,15.93
2023-05-14T12:37:04.959Z,15.83
2023-05-14T12:40:10.366Z,15.60
2023-05-14T12:43:13.563Z,15.54
2023-05-14T12:46:17.017Z,15.61
2023-05-14T12:49:20.605Z,15.43
2023-05-14T12:52:36.796Z,15.76
2023-05-14T12:55:42.869Z,15.94
2023-05-14T12:58:46.637Z,15.76
2023-05-14T13:01:50.075Z,15.93
2023-05-14T13:04:53.205Z,15.77
2023-05-14T13:08:00.641Z,15.73
2023-05-14T13:11:05.229Z,16.28
2023-05-14T13:14:10.466Z,16.47
2023-05-14T13:17:13.926Z,16.83
2023-05-14T13:20:17.792Z,16.92
2023-05-14T13:23:20.928Z,16.15
2023-05-14T13:26:28.162Z,17.12
2023-05-14T13:29:31.574Z,16.30
2023-05-14T13:32:34.759Z,16.50
2023-05-14T13:35:38.068Z,16.55
2023-05-14T13:38:41.261Z,16.34
2023-05-14T13:41:45.700Z,16.15
2023-05-14T13:44:48.990Z,16.61
2023-05-14T13:47:52.179Z,16.61
2023-05-14T13:50:55.436Z,16.62
2023-05-14T13:53:58.942Z,16.23
2023-05-14T13:57:03.350Z,16.70
2023-05-14T14:00:07.970Z,16.63
2023-05-14T14:03:11.389Z,16.56
2023-05-14T14:06:14.606Z,16.76
2023-05-14T14:09:17.740Z,17.41
2023-05-14T14:12:22.478Z,17.05
2023-05-14T14:15:25.870Z,17.42
2023-05-14T14:18:29.205Z,17.43
2023-05-14T14:21:32.733Z,17.54
2023-05-14T14:24:35.957Z,17.52
2023-05-14T14:27:40.926Z,17.63
2023-05-14T14:30:44.673Z,16.92
2023-05-14T14:33:48.167Z,17.35
2023-05-14T14:36:51.410Z,16.80
2023-05-14T14:39:54.928Z,17.09
2023-05-14T14:42:59.403Z,17.03
2023-05-14T14:46:02.744Z,17.38
2023-05-14T14:49:06.016Z,16.85
2023-05-14T14:52:09.909Z,16.83
2023-05-14T14:55:13.069Z,16.76
2023-05-14T14:58:19.082Z,16.98
2023-05-14T15:01:22.840Z,16.70
2023-05-14T15:04:26.029Z,17.14
2023-05-14T15:07:32.752Z,17.55
2023-05-14T15:10:37.797Z,17.35
2023-05-14T15:13:43.003Z,17.38
2023-05-14T15:16:46.774Z,17.13
2023-05-14T15:19:51.482Z,16.88
2023-05-14T15:22:55.108Z,16.74
2023-05-14T15:25:58.280Z,16.67
2023-05-14T15:29:04.564Z,16.65
2023-05-14T15:34:39.426Z,16.50
2023-05-14T15:37:43.727Z,16.35
2023-05-14T15:40:46.876Z,16.32
2023-05-14T15:43:50.609Z,16.09
2023-05-14T15:46:53.952Z,16.23
2023-05-14T15:49:58.559Z,16.37
2023-05-14T15:53:01.883Z,16.43
2023-05-14T15:56:05.326Z,16.22
2023-05-14T15:59:10.606Z,16.23
2023-05-14T16:02:14.442Z,15.92
2023-05-14T16:05:19.010Z,16.13
2023-05-14T16:08:22.179Z,16.35
2023-05-14T16:11:25.452Z,16.32
2023-05-14T16:14:28.589Z,16.52
2023-05-14T16:17:32.695Z,16.70
2023-05-14T16:20:37.318Z,16.53
2023-05-14T16:23:40.493Z,16.46
2023-05-14T16:26:43.623Z,16.82
2023-05-14T16:29:46.791Z,16.48
2023-05-14T16:32:50.198Z,16.73
2023-05-14T16:35:54.957Z,16.83
2023-05-14T16:39:07.130Z,16.71
2023-05-14T16:42:10.717Z,16.51
2023-05-14T16:45:13.884Z,16.26
2023-05-14T16:48:17.128Z,16.24
2023-05-14T16:51:21.625Z,15.96
2023-05-14T16:54:24.888Z,15.74
2023-05-14T16:57:28.012Z,15.93
2023-05-14T17:00:31.565Z,15.87
2023-05-14T17:03:34.750Z,15.87
2023-05-14T17:06:39.272Z,15.94
2023-05-14T17:09:42.839Z,15.70
2023-05-14T17:12:46.139Z,16.04
2023-05-14T17:15:49.261Z,16.01
2023-05-14T17:18:53.024Z,15.81
2023-05-14T17:21:57.958Z,15.61
2023-05-14T17:25:01.579Z,15.66
2023-05-14T17:28:05.544Z,15.76
2023-05-14T17:31:08.707Z,15.63
2023-05-14T17:34:11.854Z,15.64
2023-05-14T17:37:16.616Z,15.63
2023-05-14T17:40:19.735Z,15.48
2023-05-14T17:43:22.996Z,15.42
2023-05-14T17:46:29.097Z,15.49
2023-05-14T17:49:32.315Z,15.50
2023-05-14T17:52:37.685Z,15.34
2023-05-14T17:55:43.520Z,15.38
2023-05-14T17:58:47.741Z,15.28
2023-05-14T18:01:50.842Z,15.13
2023-05-14T18:04:54.042Z,15.09
2023-05-14T18:07:59.097Z,15.14
2023-05-14T18:11:02.210Z,15.03
2023-05-14T18:14:10.326Z,15.01
2023-05-14T18:17:13.693Z,14.96
2023-05-14T18:20:16.885Z,14.95
2023-05-14T18:23:21.429Z,14.85
2023-05-14T18:26:24.600Z,14.06
2023-05-14T18:29:27.858Z,14.53
2023-05-14T18:32:31.753Z,14.43
2023-05-14T18:35:35.190Z,14.36
2023-05-14T18:38:40.722Z,14.22
2023-05-14T18:41:43.810Z,14.16
2023-05-14T18:44:46.958Z,14.22
2023-05-14T18:47:50.706Z,13.95
2023-05-14T18:50:53.891Z,13.99
2023-05-14T18:53:58.958Z,14.00
2023-05-14T18:57:02.647Z,13.84
2023-05-14T19:00:06.964Z,13.97
2023-05-14T19:03:10.299Z,14.05
2023-05-14T19:06:13.568Z,14.01
2023-05-14T19:09:21.034Z,13.75
2023-05-14T19:12:24.279Z,13.84
2023-05-14T19:15:27.590Z,13.66
2023-05-14T19:18:30.887Z,13.59
2023-05-14T19:21:34.030Z,13.45
2023-05-14T19:24:38.742Z,13.13
2023-05-14T19:27:41.979Z,13.15
2023-05-14T19:30:45.099Z,13.08
2023-05-14T19:33:48.418Z,12.91
2023-05-14T19:36:51.750Z,12.64
2023-05-14T19:39:56.264Z,12.39
2023-05-14T19:42:59.641Z,12.34
2023-05-14T19:46:03.868Z,12.30
2023-05-14T19:49:07.706Z,12.25
2023-05-14T19:52:11.485Z,12.28
2023-05-14T19:55:16.234Z,12.05
2023-05-14T19:58:19.346Z,12.01
2023-05-14T20:01:22.828Z,11.83
2023-05-14T20:04:26.094Z,11.54
2023-05-14T20:07:29.392Z,11.32
2023-05-14T20:10:33.940Z,11.31
2023-05-14T20:13:37.434Z,11.14
2023-05-14T20:16:41.628Z,11.09
2023-05-14T20:19:44.972Z,11.03
2023-05-14T20:22:48.118Z,10.93
2023-05-14T20:25:53.083Z,10.80
2023-05-14T20:28:56.295Z,10.93
2023-05-14T20:31:59.517Z,10.95
2023-05-14T20:35:02.914Z,10.88
2023-05-14T20:38:07.141Z,11.03
2023-05-14T20:41:12.057Z,11.12
2023-05-14T20:44:15.503Z,11.16
2023-05-14T20:47:21.420Z,11.15
2023-05-14T20:50:26.946Z,11.33
2023-05-14T20:53:30.432Z,11.24
2023-05-14T20:56:36.398Z,11.35
2023-05-14T20:59:39.576Z,11.43
2023-05-14T21:02:42.812Z,11.35
2023-05-14T21:05:46.166Z,11.49
2023-05-14T21:08:49.322Z,11.36
2023-05-14T21:11:53.886Z,11.38
2023-05-14T21:14:57.202Z,11.44
2023-05-14T21:18:01.245Z,11.23
2023-05-14T21:21:05.420Z,11.19
2023-05-14T21:24:09.051Z,11.00
2023-05-14T21:27:14.130Z,10.99
2023-05-14T21:30:17.385Z,10.98
2023-05-14T21:34:39.127Z,11.10
2023-05-14T21:37:42.422Z,11.16
2023-05-14T21:40:45.561Z,11.19
2023-05-14T21:43:48.970Z,11.12
2023-05-14T21:46:52.240Z,11.17
2023-05-14T21:49:56.762Z,11.20
2023-05-14T21:53:00.018Z,11.19
2023-05-14T21:56:03.317Z,11.11
2023-05-14T21:59:11.053Z,11.09
2023-05-14T22:02:14.443Z,11.11
2023-05-14T22:05:19.243Z,11.05
2023-05-14T22:08:25.298Z,11.05
2023-05-14T22:11:28.373Z,10.93
2023-05-14T22:14:31.524Z,11.59
2023-05-14T22:17:35.069Z,11.06
2023-05-14T22:20:39.934Z,10.95
2023-05-14T22:23:43.069Z,10.89
2023-05-14T22:26:46.182Z,10.93
2023-05-14T22:29:49.276Z,10.83
2023-05-14T22:32:52.372Z,10.82
2023-05-14T22:35:56.943Z,10.92
2023-05-14T22:39:00.921Z,11.12
2023-05-14T22:42:04.393Z,10.84
2023-05-14T22:45:08.767Z,10.83
2023-05-14T22:48:11.993Z,10.87
2023-05-14T22:51:16.617Z,10.90
2023-05-14T22:54:19.742Z,10.88
2023-05-14T22:57:22.977Z,10.43
2023-05-14T23:00:26.164Z,10.76
2023-05-14T23:03:29.630Z,10.55
2023-05-14T23:06:34.154Z,10.62
2023-05-14T23:09:37.431Z,10.90
2023-05-14T23:12:40.547Z,10.86
2023-05-14T23:15:44.783Z,10.44
2023-05-14T23:18:48.099Z,10.45
2023-05-14T23:21:52.700Z,10.48
2023-05-14T23:24:55.894Z,10.18
2023-05-14T23:27:59.125Z,10.19
2023-05-14T23:31:02.428Z,10.08
2023-05-14T23:34:05.575Z,10.26
2023-05-14T23:37:10.110Z,9.81
2023-05-14T23:40:13.657Z,9.93
2023-05-14T23:43:17.023Z,9.84
2023-05-14T23:46:20.248Z,9.86
2023-05-14T23:49:23.529Z,9.77
2023-05-14T23:52:28.063Z,9.71
2023-05-14T23:55:31.400Z,9.63
2023-05-14T23:58:34.511Z,9.67
